sensor_id;sensor_type;location;lat;lon;timestamp;temperature;humidity
4530;DHT22;2277;51.626;7.516;2022-12-05T00:00:52;4.50;99.90
4530;DHT22;2277;51.626;7.516;2022-12-05T00:03:18;4.50;99.90
4530;DHT22;2277;51.626;7.516;2022-12-05T00:05:44;4.40;99.90
4530;DHT22;2277;51.626;7.516;2022-12-05T00:08:10;4.50;99.90
4530;DHT22;2277;51.626;7.516;2022-12-05T00:10:36;4.50;99.90
4530;DHT22;2277;51.626;7.516;2022-12-05T00:13:02;4.50;99.90
4530;DHT22;2277;51.626;7.516;2022-12-05T00:15:28;4.50;99.90
4530;DHT22;2277;51.626;7.516;2022-12-05T00:17:53;4.50;99.90
4530;DHT22;2277;51.626;7.516;2022-12-05T00:20:19;4.50;99.90
4530;DHT22;2277;51.626;7.516;2022-12-05T00:22:45;4.50;99.90
4530;DHT22;2277;51.626;7.516;2022-12-05T00:25:11;4.60;99.90
4530;DHT22;2277;51.626;7.516;2022-12-05T00:27:37;4.50;99.90
4530;DHT22;2277;51.626;7.516;2022-12-05T00:30:03;4.50;99.90
4530;DHT22;2277;51.626;7.516;2022-12-05T00:32:29;4.50;99.90
4530;DHT22;2277;51.626;7.516;2022-12-05T00:34:55;4.50;99.90
4530;DHT22;2277;51.626;7.516;2022-12-05T00:37:21;4.50;99.90
4530;DHT22;2277;51.626;7.516;2022-12-05T00:39:47;4.40;99.90
4530;DHT22;2277;51.626;7.516;2022-12-05T00:42:12;4.50;99.90
4530;DHT22;2277;51.626;7.516;2022-12-05T00:44:38;4.40;99.90
4530;DHT22;2277;51.626;7.516;2022-12-05T00:47:04;4.40;99.90
4530;DHT22;2277;51.626;7.516;2022-12-05T00:49:29;4.40;99.90
4530;DHT22;2277;51.626;7.516;2022-12-05T00:51:55;4.40;99.90
4530;DHT22;2277;51.626;7.516;2022-12-05T00:54:20;4.50;99.90
4530;DHT22;2277;51.626;7.516;2022-12-05T00:56:46;4.50;99.90
4530;DHT22;2277;51.626;7.516;2022-12-05T00:59:15;4.50;99.90
4530;DHT22;2277;51.626;7.516;2022-12-05T01:01:43;4.50;99.90
4530;DHT22;2277;51.626;7.516;2022-12-05T01:04:14;4.50;99.90
4530;DHT22;2277;51.626;7.516;2022-12-05T01:06:41;4.50;99.90
4530;DHT22;2277;51.626;7.516;2022-12-05T01:09:07;4.60;99.90
4530;DHT22;2277;51.626;7.516;2022-12-05T01:11:33;4.60;99.90
4530;DHT22;2277;51.626;7.516;2022-12-05T01:13:59;4.60;99.90
4530;DHT22;2277;51.626;7.516;2022-12-05T01:16:28;4.60;99.90
4530;DHT22;2277;51.626;7.516;2022-12-05T01:18:55;4.60;99.90
4530;DHT22;2277;51.626;7.516;2022-12-05T01:21:21;4.50;99.90
4530;DHT22;2277;51.626;7.516;2022-12-05T01:23:47;4.60;99.90
4530;DHT22;2277;51.626;7.516;2022-12-05T01:26:16;4.60;99.90
4530;DHT22;2277;51.626;7.516;2022-12-05T01:28:42;4.60;99.90
4530;DHT22;2277;51.626;7.516;2022-12-05T01:31:19;4.60;99.90
4530;DHT22;2277;51.626;7.516;2022-12-05T01:33:46;4.60;99.90
4530;DHT22;2277;51.626;7.516;2022-12-05T01:36:11;4.60;99.90
4530;DHT22;2277;51.626;7.516;2022-12-05T01:38:38;4.50;99.90
4530;DHT22;2277;51.626;7.516;2022-12-05T01:41:06;4.60;99.90
4530;DHT22;2277;51.626;7.516;2022-12-05T01:43:32;4.60;99.90
4530;DHT22;2277;51.626;7.516;2022-12-05T01:45:58;4.50;99.90
4530;DHT22;2277;51.626;7.516;2022-12-05T01:48:29;4.60;99.90
4530;DHT22;2277;51.626;7.516;2022-12-05T01:50:56;4.60;99.90
4530;DHT22;2277;51.626;7.516;2022-12-05T01:53:23;4.60;99.90
4530;DHT22;2277;51.626;7.516;2022-12-05T01:55:50;4.60;99.90
4530;DHT22;2277;51.626;7.516;2022-12-05T01:58:16;4.60;99.90
4530;DHT22;2277;51.626;7.516;2022-12-05T02:00:42;4.60;99.90
4530;DHT22;2277;51.626;7.516;2022-12-05T02:03:12;4.60;99.90
4530;DHT22;2277;51.626;7.516;2022-12-05T02:05:39;4.50;99.90
4530;DHT22;2277;51.626;7.516;2022-12-05T02:08:07;4.60;99.90
4530;DHT22;2277;51.626;7.516;2022-12-05T02:10:39;4.60;99.90
4530;DHT22;2277;51.626;7.516;2022-12-05T02:16:07;4.60;99.90
4530;DHT22;2277;51.626;7.516;2022-12-05T02:32:42;4.60;99.90
4530;DHT22;2277;51.626;7.516;2022-12-05T02:35:14;4.60;99.90
4530;DHT22;2277;51.626;7.516;2022-12-05T02:40:42;4.60;99.90
4530;DHT22;2277;51.626;7.516;2022-12-05T02:43:21;4.60;99.90
4530;DHT22;2277;51.626;7.516;2022-12-05T02:45:50;4.60;99.90
4530;DHT22;2277;51.626;7.516;2022-12-05T02:48:17;4.60;99.90
4530;DHT22;2277;51.626;7.516;2022-12-05T02:50:46;4.60;99.90
4530;DHT22;2277;51.626;7.516;2022-12-05T02:53:14;4.60;99.90
4530;DHT22;2277;51.626;7.516;2022-12-05T02:55:41;4.60;99.90
4530;DHT22;2277;51.626;7.516;2022-12-05T02:58:12;4.60;99.90
4530;DHT22;2277;51.626;7.516;2022-12-05T03:00:41;4.60;99.90
4530;DHT22;2277;51.626;7.516;2022-12-05T03:03:13;4.50;99.90
4530;DHT22;2277;51.626;7.516;2022-12-05T03:05:50;4.60;99.90
4530;DHT22;2277;51.626;7.516;2022-12-05T03:08:22;4.60;99.90
4530;DHT22;2277;51.626;7.516;2022-12-05T03:10:50;4.60;99.90
4530;DHT22;2277;51.626;7.516;2022-12-05T03:13:24;4.60;99.90
4530;DHT22;2277;51.626;7.516;2022-12-05T03:15:55;4.60;99.90
4530;DHT22;2277;51.626;7.516;2022-12-05T03:18:31;4.50;99.90
4530;DHT22;2277;51.626;7.516;2022-12-05T03:21:13;4.50;99.90
4530;DHT22;2277;51.626;7.516;2022-12-05T03:23:55;4.60;99.90
4530;DHT22;2277;51.626;7.516;2022-12-05T03:31:27;4.60;99.90
4530;DHT22;2277;51.626;7.516;2022-12-05T03:33:58;4.60;99.90
4530;DHT22;2277;51.626;7.516;2022-12-05T03:36:33;4.60;99.90
4530;DHT22;2277;51.626;7.516;2022-12-05T03:39:16;4.60;99.90
4530;DHT22;2277;51.626;7.516;2022-12-05T03:41:55;4.60;99.90
4530;DHT22;2277;51.626;7.516;2022-12-05T03:44:47;4.60;99.90
4530;DHT22;2277;51.626;7.516;2022-12-05T03:47:24;4.60;99.90
4530;DHT22;2277;51.626;7.516;2022-12-05T03:49:55;4.60;99.90
4530;DHT22;2277;51.626;7.516;2022-12-05T03:52:53;4.60;99.90
4530;DHT22;2277;51.626;7.516;2022-12-05T03:55:22;4.60;99.90
4530;DHT22;2277;51.626;7.516;2022-12-05T03:57:54;4.70;99.90
4530;DHT22;2277;51.626;7.516;2022-12-05T04:00:22;4.60;99.90
4530;DHT22;2277;51.626;7.516;2022-12-05T04:03:08;4.70;99.90
4530;DHT22;2277;51.626;7.516;2022-12-05T04:05:54;4.60;99.90
4530;DHT22;2277;51.626;7.516;2022-12-05T04:08:30;4.70;99.90
4530;DHT22;2277;51.626;7.516;2022-12-05T04:11:02;4.70;99.90
4530;DHT22;2277;51.626;7.516;2022-12-05T04:13:46;4.70;99.90
4530;DHT22;2277;51.626;7.516;2022-12-05T04:16:32;4.60;99.90
4530;DHT22;2277;51.626;7.516;2022-12-05T04:19:45;4.70;99.90
4530;DHT22;2277;51.626;7.516;2022-12-05T04:22:29;4.70;99.90
4530;DHT22;2277;51.626;7.516;2022-12-05T04:24:58;4.70;99.90
4530;DHT22;2277;51.626;7.516;2022-12-05T04:33:32;4.60;99.90
4530;DHT22;2277;51.626;7.516;2022-12-05T04:36:12;4.70;99.90
4530;DHT22;2277;51.626;7.516;2022-12-05T04:38:47;4.70;99.90
4530;DHT22;2277;51.626;7.516;2022-12-05T04:41:28;4.70;99.90
4530;DHT22;2277;51.626;7.516;2022-12-05T04:43:59;4.70;99.90
4530;DHT22;2277;51.626;7.516;2022-12-05T04:46:26;4.70;99.90
4530;DHT22;2277;51.626;7.516;2022-12-05T04:48:57;4.70;99.90
4530;DHT22;2277;51.626;7.516;2022-12-05T04:51:27;4.70;99.90
4530;DHT22;2277;51.626;7.516;2022-12-05T04:53:58;4.70;99.90
4530;DHT22;2277;51.626;7.516;2022-12-05T04:56:28;4.70;99.90
4530;DHT22;2277;51.626;7.516;2022-12-05T04:58:54;4.70;99.90
4530;DHT22;2277;51.626;7.516;2022-12-05T05:01:46;4.70;99.90
4530;DHT22;2277;51.626;7.516;2022-12-05T05:04:14;4.70;99.90
4530;DHT22;2277;51.626;7.516;2022-12-05T05:06:42;4.70;99.90
4530;DHT22;2277;51.626;7.516;2022-12-05T05:09:09;4.70;99.90
4530;DHT22;2277;51.626;7.516;2022-12-05T05:11:35;4.70;99.90
4530;DHT22;2277;51.626;7.516;2022-12-05T05:14:01;4.80;99.90
4530;DHT22;2277;51.626;7.516;2022-12-05T05:16:29;4.70;99.90
4530;DHT22;2277;51.626;7.516;2022-12-05T05:18:56;4.70;99.90
4530;DHT22;2277;51.626;7.516;2022-12-05T05:21:33;4.70;99.90
4530;DHT22;2277;51.626;7.516;2022-12-05T05:23:59;4.70;99.90
4530;DHT22;2277;51.626;7.516;2022-12-05T05:26:26;4.70;99.90
4530;DHT22;2277;51.626;7.516;2022-12-05T05:28:51;4.70;99.90
4530;DHT22;2277;51.626;7.516;2022-12-05T05:31:18;4.70;99.90
4530;DHT22;2277;51.626;7.516;2022-12-05T05:33:51;4.70;99.90
4530;DHT22;2277;51.626;7.516;2022-12-05T05:36:18;4.70;99.90
4530;DHT22;2277;51.626;7.516;2022-12-05T05:38:46;4.70;99.90
4530;DHT22;2277;51.626;7.516;2022-12-05T05:41:19;4.70;99.90
4530;DHT22;2277;51.626;7.516;2022-12-05T05:43:45;4.70;99.90
4530;DHT22;2277;51.626;7.516;2022-12-05T05:46:12;4.70;99.90
4530;DHT22;2277;51.626;7.516;2022-12-05T05:48:38;4.70;99.90
4530;DHT22;2277;51.626;7.516;2022-12-05T05:51:06;4.70;99.90
4530;DHT22;2277;51.626;7.516;2022-12-05T05:53:32;4.70;99.90
4530;DHT22;2277;51.626;7.516;2022-12-05T05:56:04;4.60;99.90
4530;DHT22;2277;51.626;7.516;2022-12-05T05:58:30;4.70;99.90
4530;DHT22;2277;51.626;7.516;2022-12-05T06:03:36;4.70;99.90
4530;DHT22;2277;51.626;7.516;2022-12-05T06:06:05;4.60;99.90
4530;DHT22;2277;51.626;7.516;2022-12-05T06:08:33;4.60;99.90
4530;DHT22;2277;51.626;7.516;2022-12-05T06:10:59;4.60;99.90
4530;DHT22;2277;51.626;7.516;2022-12-05T06:13:25;4.60;99.90
4530;DHT22;2277;51.626;7.516;2022-12-05T06:15:50;4.60;99.90
4530;DHT22;2277;51.626;7.516;2022-12-05T06:18:16;4.50;99.90
4530;DHT22;2277;51.626;7.516;2022-12-05T06:20:42;4.50;99.90
4530;DHT22;2277;51.626;7.516;2022-12-05T06:23:15;4.50;99.90
4530;DHT22;2277;51.626;7.516;2022-12-05T06:25:46;4.50;99.90
4530;DHT22;2277;51.626;7.516;2022-12-05T06:28:12;4.50;99.90
4530;DHT22;2277;51.626;7.516;2022-12-05T06:30:37;4.50;99.90
4530;DHT22;2277;51.626;7.516;2022-12-05T06:33:03;4.50;99.90
4530;DHT22;2277;51.626;7.516;2022-12-05T06:35:29;4.40;99.90
4530;DHT22;2277;51.626;7.516;2022-12-05T06:37:54;4.40;99.90
4530;DHT22;2277;51.626;7.516;2022-12-05T06:40:20;4.30;99.90
4530;DHT22;2277;51.626;7.516;2022-12-05T06:42:46;4.40;99.90
4530;DHT22;2277;51.626;7.516;2022-12-05T06:45:11;4.40;99.90
4530;DHT22;2277;51.626;7.516;2022-12-05T06:47:37;4.30;99.90
4530;DHT22;2277;51.626;7.516;2022-12-05T06:50:03;4.30;99.90
4530;DHT22;2277;51.626;7.516;2022-12-05T06:52:29;4.30;99.90
4530;DHT22;2277;51.626;7.516;2022-12-05T06:54:54;4.30;99.90
4530;DHT22;2277;51.626;7.516;2022-12-05T06:57:20;4.20;99.90
4530;DHT22;2277;51.626;7.516;2022-12-05T06:59:46;4.20;99.90
4530;DHT22;2277;51.626;7.516;2022-12-05T07:02:12;4.20;99.90
4530;DHT22;2277;51.626;7.516;2022-12-05T07:04:38;4.20;99.90
4530;DHT22;2277;51.626;7.516;2022-12-05T07:07:04;4.10;99.90
4530;DHT22;2277;51.626;7.516;2022-12-05T07:09:29;4.10;99.90
4530;DHT22;2277;51.626;7.516;2022-12-05T07:12:12;4.00;99.90
4530;DHT22;2277;51.626;7.516;2022-12-05T07:14:37;4.00;99.90
4530;DHT22;2277;51.626;7.516;2022-12-05T07:17:03;4.00;99.90
4530;DHT22;2277;51.626;7.516;2022-12-05T07:19:29;4.00;99.90
4530;DHT22;2277;51.626;7.516;2022-12-05T07:21:54;4.00;99.90
4530;DHT22;2277;51.626;7.516;2022-12-05T07:24:20;4.00;99.90
4530;DHT22;2277;51.626;7.516;2022-12-05T07:26:46;4.00;99.90
4530;DHT22;2277;51.626;7.516;2022-12-05T07:29:11;4.00;99.90
4530;DHT22;2277;51.626;7.516;2022-12-05T07:31:37;4.00;99.90
4530;DHT22;2277;51.626;7.516;2022-12-05T07:34:02;4.00;99.90
4530;DHT22;2277;51.626;7.516;2022-12-05T07:36:28;3.90;99.90
4530;DHT22;2277;51.626;7.516;2022-12-05T07:38:55;3.90;99.90
4530;DHT22;2277;51.626;7.516;2022-12-05T07:41:28;4.00;99.90
4530;DHT22;2277;51.626;7.516;2022-12-05T07:43:55;3.90;99.90
4530;DHT22;2277;51.626;7.516;2022-12-05T07:46:21;3.90;99.90
4530;DHT22;2277;51.626;7.516;2022-12-05T07:48:47;3.90;99.90
4530;DHT22;2277;51.626;7.516;2022-12-05T07:51:15;3.90;99.90
4530;DHT22;2277;51.626;7.516;2022-12-05T07:53:41;3.90;99.90
4530;DHT22;2277;51.626;7.516;2022-12-05T07:56:10;3.90;99.90
4530;DHT22;2277;51.626;7.516;2022-12-05T07:58:36;3.90;99.90
4530;DHT22;2277;51.626;7.516;2022-12-05T08:01:19;3.90;99.90
4530;DHT22;2277;51.626;7.516;2022-12-05T08:03:46;3.90;99.90
4530;DHT22;2277;51.626;7.516;2022-12-05T08:06:14;3.90;99.90
4530;DHT22;2277;51.626;7.516;2022-12-05T08:08:40;3.90;99.90
4530;DHT22;2277;51.626;7.516;2022-12-05T08:11:12;3.90;99.90
4530;DHT22;2277;51.626;7.516;2022-12-05T08:13:39;3.90;99.90
4530;DHT22;2277;51.626;7.516;2022-12-05T08:16:08;3.90;99.90
4530;DHT22;2277;51.626;7.516;2022-12-05T08:18:34;3.90;99.90
4530;DHT22;2277;51.626;7.516;2022-12-05T08:21:01;3.90;99.90
4530;DHT22;2277;51.626;7.516;2022-12-05T08:23:29;3.90;99.90
4530;DHT22;2277;51.626;7.516;2022-12-05T08:25:55;3.90;99.90
4530;DHT22;2277;51.626;7.516;2022-12-05T08:28:20;3.90;99.90
4530;DHT22;2277;51.626;7.516;2022-12-05T08:30:46;3.90;99.90
4530;DHT22;2277;51.626;7.516;2022-12-05T08:33:11;3.90;99.90
4530;DHT22;2277;51.626;7.516;2022-12-05T08:35:37;3.90;99.90
4530;DHT22;2277;51.626;7.516;2022-12-05T08:38:02;3.90;99.90
4530;DHT22;2277;51.626;7.516;2022-12-05T08:40:28;3.90;99.90
4530;DHT22;2277;51.626;7.516;2022-12-05T08:42:55;3.90;99.90
4530;DHT22;2277;51.626;7.516;2022-12-05T08:45:22;3.90;99.90
4530;DHT22;2277;51.626;7.516;2022-12-05T08:47:47;3.90;99.90
4530;DHT22;2277;51.626;7.516;2022-12-05T08:50:13;4.00;99.90
4530;DHT22;2277;51.626;7.516;2022-12-05T08:52:38;3.90;99.90
4530;DHT22;2277;51.626;7.516;2022-12-05T08:55:04;3.90;99.90
4530;DHT22;2277;51.626;7.516;2022-12-05T08:57:30;4.00;99.90
4530;DHT22;2277;51.626;7.516;2022-12-05T08:59:55;4.00;99.90
4530;DHT22;2277;51.626;7.516;2022-12-05T09:02:21;4.00;99.90
4530;DHT22;2277;51.626;7.516;2022-12-05T09:04:49;4.00;99.90
4530;DHT22;2277;51.626;7.516;2022-12-05T09:07:16;4.00;99.90
4530;DHT22;2277;51.626;7.516;2022-12-05T09:09:41;4.00;99.90
4530;DHT22;2277;51.626;7.516;2022-12-05T09:12:07;4.00;99.90
4530;DHT22;2277;51.626;7.516;2022-12-05T09:14:32;4.00;99.90
4530;DHT22;2277;51.626;7.516;2022-12-05T09:16:59;4.00;99.90
4530;DHT22;2277;51.626;7.516;2022-12-05T09:19:25;4.00;99.90
4530;DHT22;2277;51.626;7.516;2022-12-05T09:21:52;4.10;99.90
4530;DHT22;2277;51.626;7.516;2022-12-05T09:24:18;4.10;99.90
4530;DHT22;2277;51.626;7.516;2022-12-05T09:26:44;4.10;99.90
4530;DHT22;2277;51.626;7.516;2022-12-05T09:29:11;4.10;99.90
4530;DHT22;2277;51.626;7.516;2022-12-05T09:31:37;4.10;99.90
4530;DHT22;2277;51.626;7.516;2022-12-05T09:34:03;4.10;99.90
4530;DHT22;2277;51.626;7.516;2022-12-05T09:36:30;4.10;99.90
4530;DHT22;2277;51.626;7.516;2022-12-05T09:38:59;4.10;99.90
4530;DHT22;2277;51.626;7.516;2022-12-05T09:41:41;4.10;99.90
4530;DHT22;2277;51.626;7.516;2022-12-05T09:50:20;4.10;99.90
4530;DHT22;2277;51.626;7.516;2022-12-05T09:52:58;4.10;99.90
4530;DHT22;2277;51.626;7.516;2022-12-05T10:04:01;4.10;99.90
4530;DHT22;2277;51.626;7.516;2022-12-05T10:15:48;4.10;99.90
4530;DHT22;2277;51.626;7.516;2022-12-05T10:18:33;4.10;99.90
4530;DHT22;2277;51.626;7.516;2022-12-05T10:24:00;4.10;99.90
4530;DHT22;2277;51.626;7.516;2022-12-05T10:26:35;4.10;99.90
4530;DHT22;2277;51.626;7.516;2022-12-05T10:29:44;4.00;99.90
4530;DHT22;2277;51.626;7.516;2022-12-05T10:31:54;4.10;99.90
4530;DHT22;2277;51.626;7.516;2022-12-05T10:34:30;4.00;99.90
4530;DHT22;2277;51.626;7.516;2022-12-05T10:37:01;4.10;99.90
4530;DHT22;2277;51.626;7.516;2022-12-05T10:39:32;4.00;99.90
4530;DHT22;2277;51.626;7.516;2022-12-05T10:41:58;4.00;99.90
4530;DHT22;2277;51.626;7.516;2022-12-05T10:44:24;4.10;99.90
4530;DHT22;2277;51.626;7.516;2022-12-05T10:46:49;4.10;99.90
4530;DHT22;2277;51.626;7.516;2022-12-05T10:49:15;4.00;99.90
4530;DHT22;2277;51.626;7.516;2022-12-05T10:51:42;4.10;99.90
4530;DHT22;2277;51.626;7.516;2022-12-05T10:54:21;4.10;99.90
4530;DHT22;2277;51.626;7.516;2022-12-05T10:56:50;4.00;99.90
4530;DHT22;2277;51.626;7.516;2022-12-05T10:59:18;4.10;99.90
4530;DHT22;2277;51.626;7.516;2022-12-05T11:01:57;4.00;99.90
4530;DHT22;2277;51.626;7.516;2022-12-05T11:04:25;4.00;99.90
4530;DHT22;2277;51.626;7.516;2022-12-05T11:06:56;4.00;99.90
4530;DHT22;2277;51.626;7.516;2022-12-05T11:09:25;4.00;99.90
4530;DHT22;2277;51.626;7.516;2022-12-05T11:12:02;4.00;99.90
4530;DHT22;2277;51.626;7.516;2022-12-05T11:14:28;4.00;99.90
4530;DHT22;2277;51.626;7.516;2022-12-05T11:16:57;4.00;99.90
4530;DHT22;2277;51.626;7.516;2022-12-05T11:19:38;4.00;99.90
4530;DHT22;2277;51.626;7.516;2022-12-05T11:22:04;4.00;99.90
4530;DHT22;2277;51.626;7.516;2022-12-05T11:24:37;4.00;99.90
4530;DHT22;2277;51.626;7.516;2022-12-05T11:29:41;4.00;99.90
4530;DHT22;2277;51.626;7.516;2022-12-05T11:32:19;4.00;99.90
4530;DHT22;2277;51.626;7.516;2022-12-05T11:40:23;4.00;99.90
4530;DHT22;2277;51.626;7.516;2022-12-05T11:56:37;3.90;99.90
4530;DHT22;2277;51.626;7.516;2022-12-05T11:59:21;4.00;99.90
4530;DHT22;2277;51.626;7.516;2022-12-05T12:05:43;4.00;99.90
4530;DHT22;2277;51.626;7.516;2022-12-05T12:13:55;3.90;99.90
4530;DHT22;2277;51.626;7.516;2022-12-05T12:22:01;3.90;99.90
4530;DHT22;2277;51.626;7.516;2022-12-05T12:27:22;3.90;99.90
4530;DHT22;2277;51.626;7.516;2022-12-05T12:30:16;3.90;99.90
4530;DHT22;2277;51.626;7.516;2022-12-05T12:35:31;3.90;99.90
4530;DHT22;2277;51.626;7.516;2022-12-05T12:46:26;3.90;99.90
4530;DHT22;2277;51.626;7.516;2022-12-05T12:51:31;3.90;99.90
4530;DHT22;2277;51.626;7.516;2022-12-05T12:54:17;3.90;99.90
4530;DHT22;2277;51.626;7.516;2022-12-05T13:02:00;3.90;99.90
4530;DHT22;2277;51.626;7.516;2022-12-05T13:04:33;3.90;99.90
4530;DHT22;2277;51.626;7.516;2022-12-05T13:07:25;3.90;99.90
4530;DHT22;2277;51.626;7.516;2022-12-05T13:09:56;3.90;99.90
4530;DHT22;2277;51.626;7.516;2022-12-05T13:12:29;3.90;99.90
4530;DHT22;2277;51.626;7.516;2022-12-05T13:15:39;3.90;99.90
4530;DHT22;2277;51.626;7.516;2022-12-05T13:18:10;3.90;99.90
4530;DHT22;2277;51.626;7.516;2022-12-05T13:20:38;3.90;99.90
4530;DHT22;2277;51.626;7.516;2022-12-05T13:23:05;3.90;99.90
4530;DHT22;2277;51.626;7.516;2022-12-05T13:25:34;3.90;99.90
4530;DHT22;2277;51.626;7.516;2022-12-05T13:28:05;3.90;99.90
4530;DHT22;2277;51.626;7.516;2022-12-05T13:30:33;3.80;99.90
4530;DHT22;2277;51.626;7.516;2022-12-05T13:33:23;3.80;99.90
4530;DHT22;2277;51.626;7.516;2022-12-05T13:35:55;3.80;99.90
4530;DHT22;2277;51.626;7.516;2022-12-05T13:38:40;3.80;99.90
4530;DHT22;2277;51.626;7.516;2022-12-05T13:41:39;3.80;99.90
4530;DHT22;2277;51.626;7.516;2022-12-05T13:44:54;3.80;99.90
4530;DHT22;2277;51.626;7.516;2022-12-05T13:52:31;3.80;99.90
4530;DHT22;2277;51.626;7.516;2022-12-05T13:55:00;3.80;99.90
4530;DHT22;2277;51.626;7.516;2022-12-05T14:05:34;3.80;99.90
4530;DHT22;2277;51.626;7.516;2022-12-05T14:08:53;3.80;99.90
4530;DHT22;2277;51.626;7.516;2022-12-05T14:11:12;3.80;99.90
4530;DHT22;2277;51.626;7.516;2022-12-05T14:13:39;3.80;99.90
4530;DHT22;2277;51.626;7.516;2022-12-05T14:19:00;3.80;99.90
4530;DHT22;2277;51.626;7.516;2022-12-05T14:21:52;3.90;99.90
4530;DHT22;2277;51.626;7.516;2022-12-05T14:24:49;3.90;99.90
4530;DHT22;2277;51.626;7.516;2022-12-05T14:27:40;3.90;99.90
4530;DHT22;2277;51.626;7.516;2022-12-05T14:32:36;3.90;99.90
4530;DHT22;2277;51.626;7.516;2022-12-05T14:35:09;3.90;99.90
4530;DHT22;2277;51.626;7.516;2022-12-05T14:40:34;3.90;99.90
4530;DHT22;2277;51.626;7.516;2022-12-05T14:46:24;3.90;99.90
4530;DHT22;2277;51.626;7.516;2022-12-05T14:48:51;3.90;99.90
4530;DHT22;2277;51.626;7.516;2022-12-05T14:56:30;3.90;99.90
4530;DHT22;2277;51.626;7.516;2022-12-05T14:59:02;3.90;99.90
4530;DHT22;2277;51.626;7.516;2022-12-05T15:01:42;3.90;99.90
4530;DHT22;2277;51.626;7.516;2022-12-05T15:06:59;3.80;99.90
4530;DHT22;2277;51.626;7.516;2022-12-05T15:09:30;3.80;99.90
4530;DHT22;2277;51.626;7.516;2022-12-05T15:12:00;3.80;99.90
4530;DHT22;2277;51.626;7.516;2022-12-05T15:14:33;3.80;99.90
4530;DHT22;2277;51.626;7.516;2022-12-05T15:17:02;3.80;99.90
4530;DHT22;2277;51.626;7.516;2022-12-05T15:19:46;3.80;99.90
4530;DHT22;2277;51.626;7.516;2022-12-05T15:22:16;3.80;99.90
4530;DHT22;2277;51.626;7.516;2022-12-05T15:24:43;3.80;99.90
4530;DHT22;2277;51.626;7.516;2022-12-05T15:27:10;3.70;99.90
4530;DHT22;2277;51.626;7.516;2022-12-05T15:29:38;3.70;99.90
4530;DHT22;2277;51.626;7.516;2022-12-05T15:34:54;3.70;99.90
4530;DHT22;2277;51.626;7.516;2022-12-05T15:37:24;3.70;99.90
4530;DHT22;2277;51.626;7.516;2022-12-05T15:39:59;3.60;99.90
4530;DHT22;2277;51.626;7.516;2022-12-05T15:42:43;3.60;99.90
4530;DHT22;2277;51.626;7.516;2022-12-05T15:45:22;3.60;99.90
4530;DHT22;2277;51.626;7.516;2022-12-05T15:47:54;3.70;99.90
4530;DHT22;2277;51.626;7.516;2022-12-05T15:50:39;3.70;99.90
4530;DHT22;2277;51.626;7.516;2022-12-05T15:58:19;3.70;99.90
4530;DHT22;2277;51.626;7.516;2022-12-05T16:00:51;3.70;99.90
4530;DHT22;2277;51.626;7.516;2022-12-05T16:03:42;3.70;99.90
4530;DHT22;2277;51.626;7.516;2022-12-05T16:06:17;3.70;99.90
4530;DHT22;2277;51.626;7.516;2022-12-05T16:08:45;3.60;99.90
4530;DHT22;2277;51.626;7.516;2022-12-05T16:11:13;3.60;99.90
4530;DHT22;2277;51.626;7.516;2022-12-05T16:13:57;3.60;99.90
4530;DHT22;2277;51.626;7.516;2022-12-05T16:16:30;3.60;99.90
4530;DHT22;2277;51.626;7.516;2022-12-05T16:19:03;3.50;99.90
4530;DHT22;2277;51.626;7.516;2022-12-05T16:21:34;3.30;99.90
4530;DHT22;2277;51.626;7.516;2022-12-05T16:24:25;3.30;99.90
4530;DHT22;2277;51.626;7.516;2022-12-05T16:26:58;3.10;99.90
4530;DHT22;2277;51.626;7.516;2022-12-05T16:29:32;3.10;99.90
4530;DHT22;2277;51.626;7.516;2022-12-05T16:31:59;3.10;99.90
4530;DHT22;2277;51.626;7.516;2022-12-05T16:34:27;3.20;99.90
4530;DHT22;2277;51.626;7.516;2022-12-05T16:36:54;3.20;99.90
4530;DHT22;2277;51.626;7.516;2022-12-05T16:39:20;3.30;99.90
4530;DHT22;2277;51.626;7.516;2022-12-05T16:41:47;3.40;99.90
4530;DHT22;2277;51.626;7.516;2022-12-05T16:44:50;3.40;99.90
4530;DHT22;2277;51.626;7.516;2022-12-05T16:47:22;3.50;99.90
4530;DHT22;2277;51.626;7.516;2022-12-05T16:49:48;3.50;99.90
4530;DHT22;2277;51.626;7.516;2022-12-05T16:52:14;3.60;99.90
4530;DHT22;2277;51.626;7.516;2022-12-05T16:54:40;3.50;99.90
4530;DHT22;2277;51.626;7.516;2022-12-05T16:57:09;3.50;99.90
4530;DHT22;2277;51.626;7.516;2022-12-05T16:59:38;3.50;99.90
4530;DHT22;2277;51.626;7.516;2022-12-05T17:02:10;3.50;99.90
4530;DHT22;2277;51.626;7.516;2022-12-05T17:04:36;3.50;99.90
4530;DHT22;2277;51.626;7.516;2022-12-05T17:07:03;3.50;99.90
4530;DHT22;2277;51.626;7.516;2022-12-05T17:09:28;3.50;99.90
4530;DHT22;2277;51.626;7.516;2022-12-05T17:12:20;3.50;99.90
4530;DHT22;2277;51.626;7.516;2022-12-05T17:14:43;3.50;99.90
4530;DHT22;2277;51.626;7.516;2022-12-05T17:17:12;3.50;99.90
4530;DHT22;2277;51.626;7.516;2022-12-05T17:19:38;3.50;99.90
4530;DHT22;2277;51.626;7.516;2022-12-05T17:22:04;3.40;99.90
4530;DHT22;2277;51.626;7.516;2022-12-05T17:24:30;3.40;99.90
4530;DHT22;2277;51.626;7.516;2022-12-05T17:26:56;3.30;99.90
4530;DHT22;2277;51.626;7.516;2022-12-05T17:29:22;3.40;99.90
4530;DHT22;2277;51.626;7.516;2022-12-05T17:31:47;3.40;99.90
4530;DHT22;2277;51.626;7.516;2022-12-05T17:34:15;3.40;99.90
4530;DHT22;2277;51.626;7.516;2022-12-05T17:36:42;3.30;99.90
4530;DHT22;2277;51.626;7.516;2022-12-05T17:39:08;3.30;99.90
4530;DHT22;2277;51.626;7.516;2022-12-05T17:41:34;3.40;99.90
4530;DHT22;2277;51.626;7.516;2022-12-05T17:44:00;3.40;99.90
4530;DHT22;2277;51.626;7.516;2022-12-05T17:46:25;3.40;99.90
4530;DHT22;2277;51.626;7.516;2022-12-05T17:48:51;3.50;99.90
4530;DHT22;2277;51.626;7.516;2022-12-05T17:51:18;3.50;99.90
4530;DHT22;2277;51.626;7.516;2022-12-05T17:53:44;3.50;99.90
4530;DHT22;2277;51.626;7.516;2022-12-05T17:56:11;3.50;99.90
4530;DHT22;2277;51.626;7.516;2022-12-05T17:58:37;3.50;99.90
4530;DHT22;2277;51.626;7.516;2022-12-05T18:01:03;3.50;99.90
4530;DHT22;2277;51.626;7.516;2022-12-05T18:03:29;3.60;99.90
4530;DHT22;2277;51.626;7.516;2022-12-05T18:05:54;3.60;99.90
4530;DHT22;2277;51.626;7.516;2022-12-05T18:08:20;3.60;99.90
4530;DHT22;2277;51.626;7.516;2022-12-05T18:10:48;3.60;99.90
4530;DHT22;2277;51.626;7.516;2022-12-05T18:13:14;3.60;99.90
4530;DHT22;2277;51.626;7.516;2022-12-05T18:15:40;3.70;99.90
4530;DHT22;2277;51.626;7.516;2022-12-05T18:18:06;3.70;99.90
4530;DHT22;2277;51.626;7.516;2022-12-05T18:20:33;3.70;99.90
4530;DHT22;2277;51.626;7.516;2022-12-05T18:23:00;3.70;99.90
4530;DHT22;2277;51.626;7.516;2022-12-05T18:25:27;3.70;99.90
4530;DHT22;2277;51.626;7.516;2022-12-05T18:27:53;3.70;99.90
4530;DHT22;2277;51.626;7.516;2022-12-05T18:30:18;3.70;99.90
4530;DHT22;2277;51.626;7.516;2022-12-05T18:32:44;3.70;99.90
4530;DHT22;2277;51.626;7.516;2022-12-05T18:35:09;3.70;99.90
4530;DHT22;2277;51.626;7.516;2022-12-05T18:37:36;3.70;99.90
4530;DHT22;2277;51.626;7.516;2022-12-05T18:40:06;3.70;99.90
4530;DHT22;2277;51.626;7.516;2022-12-05T18:42:32;3.70;99.90
4530;DHT22;2277;51.626;7.516;2022-12-05T18:44:58;3.70;99.90
4530;DHT22;2277;51.626;7.516;2022-12-05T18:47:24;3.70;99.90
4530;DHT22;2277;51.626;7.516;2022-12-05T18:49:50;3.70;99.90
4530;DHT22;2277;51.626;7.516;2022-12-05T18:52:16;3.70;99.90
4530;DHT22;2277;51.626;7.516;2022-12-05T18:54:41;3.70;99.90
4530;DHT22;2277;51.626;7.516;2022-12-05T18:57:07;3.70;99.90
4530;DHT22;2277;51.626;7.516;2022-12-05T18:59:33;3.70;99.90
4530;DHT22;2277;51.626;7.516;2022-12-05T19:01:58;3.70;99.90
4530;DHT22;2277;51.626;7.516;2022-12-05T19:04:25;3.70;99.90
4530;DHT22;2277;51.626;7.516;2022-12-05T19:06:56;3.70;99.90
4530;DHT22;2277;51.626;7.516;2022-12-05T19:09:24;3.70;99.90
4530;DHT22;2277;51.626;7.516;2022-12-05T19:11:51;3.70;99.90
4530;DHT22;2277;51.626;7.516;2022-12-05T19:14:22;3.70;99.90
4530;DHT22;2277;51.626;7.516;2022-12-05T19:16:50;3.70;99.90